Large, Pennsylvania
Current Conditions -  °F | °C
As of 1:53 AM on Friday 28 Nov 2014 (Local Time) from KAGC Reporting Station
Overcast Overcast  
Wind Chill: 17°   Ceiling: 2400
Heat Index: 28°   Visibility: 10mi
Dew Point: 20°   Wind: 13mph
Humidity: 72%   Direction: 290°WNW
Pressure: 30.19"   Gusts: 21mph
Location:  40.2958°N, 79.9241°W
Report Text: KAGC 280653Z 29011G18KT 10SM BKN024 OVC028 M02/M07 A3019 RMK AO2 SLP241 T10221067
Loading
Personal Weather Stations






























Interactive Weather Map New forecast layout! Learn more

10-Day Weather Forecast

Advertisements
Track Severe Weather on mobile